Latest Weather Observations for Forrest

IDW60801

Issued at 4:53 pm WST Tuesday 22 October 2019 (issued every 10 minutes, with the page automatically refreshed every 10 minutes)

About weather observations | Map of weather stations | Latest weather observations for WA | Other Formats
Station Details ID: 011052 Name: FORREST Lat: -30.85 Lon: 128.11 Height: 159.0 m
Data from the previous 72 hours. | See also: Recent months at Forrest
Date/Time
WST
Temp
°C
App
Temp
°C
Dew
Point
°C
Rel
Hum
%
Delta-T
°C
Wind Press
QNH
hPa
Press
MSL
hPa
Rain since
9am
mm
Dir  Spd
km/h
Gust
km/h
Spd
kts
Gust
kts
22/04:38pm 34.2 26.4 4.8 16 15.7 SE 35 54 19 29 1011.2 1010.8 0.0
22/04:30pm 34.5 26.2 4.1 15 16.1 SSE 37 56 20 30 1011.1 1010.7 0.0
22/04:28pm 34.7 27.4 4.3 15 16.2 SSE 32 56 17 30 1011.2 1010.8 0.0
22/04:25pm 35.1 29.1 3.6 14 16.6 SSE 24 56 13 30 1011.0 1010.6 0.0
22/04:00pm 36.0 32.5 3.3 13 17.3 E 11 13 6 7 1011.1 1010.7 0.0
22/03:30pm 35.7 31.7 3.0 13 17.1 ESE 13 19 7 10 1011.0 1010.6 0.0
22/03:00pm 36.1 32.6 3.3 13 17.3 S 11 17 6 9 1011.2 1010.8 0.0
22/02:30pm 35.7 33.1 4.1 14 16.8 SE 7 13 4 7 1011.6 1011.1 0.0
22/02:00pm 36.4 32.7 4.6 14 17.2 ENE 13 20 7 11 1011.8 1011.3 0.0
22/01:30pm 36.1 32.4 4.4 14 17.0 E 13 30 7 16 1012.2 1011.7 0.0
22/01:00pm 35.9 32.9 6.2 16 16.4 ESE 11 17 6 9 1012.7 1012.3 0.0
22/12:30pm 35.6 33.5 6.8 17 16.0 E 7 13 4 7 1013.3 1012.9 0.0
22/12:00pm 35.7 33.7 6.9 17 16.0 ENE 7 13 4 7 1013.8 1013.4 0.0
22/11:30am 34.3 31.0 6.6 18 15.2 N 13 19 7 10 1014.2 1013.8 0.0
22/11:00am 34.0 31.8 7.9 20 14.6 NNW 9 15 5 8 1014.7 1014.3 0.0
22/10:30am 32.9 30.7 7.7 21 14.0 NW 9 15 5 8 1015.1 1014.7 0.0
22/10:00am 32.4 30.4 8.6 23 13.4 NW 9 17 5 9 1015.5 1015.1 0.0
22/09:30am 31.8 29.4 8.7 24 13.0 NNW 11 20 6 11 1015.9 1015.5 0.0
22/09:00am 30.8 28.1 9.1 26 12.2 NNE 13 20 7 11 1016.2 1015.8 0.0
22/08:30am 30.1 28.3 9.6 28 11.6 NE 9 15 5 8 1016.4 1016.0 0.0
22/08:00am 28.3 26.2 9.6 31 10.5 NNE 11 15 6 8 1016.5 1016.1 0.0
22/07:30am 27.6 24.6 9.4 32 10.1 NNE 15 19 8 10 1016.6 1016.2 0.0
22/07:00am 26.1 24.3 9.5 35 9.2 ENE 9 13 5 7 1016.7 1016.3 0.0
22/06:30am 24.2 22.5 9.8 40 7.9 NE 9 11 5 6 1016.7 1016.3 0.0
22/06:00am 21.5 20.0 9.1 45 6.6 ESE 7 9 4 5 1016.5 1016.1 0.0
22/05:30am 18.6 16.4 8.0 50 5.5 ESE 9 11 5 6 1016.4 1016.0 0.0
22/05:00am 16.6 13.7 6.4 51 5.0 ESE 11 13 6 7 1016.3 1015.9 0.0
22/04:30am 17.3 15.3 7.1 51 5.1 ESE 7 9 4 5 1016.1 1015.7 0.0
22/04:00am 17.1 14.5 6.3 49 5.3 ESE 9 13 5 7 1015.7 1015.3 0.0
22/03:30am 17.1 16.0 5.1 45 5.8 CALM 0 9 0 5 1016.0 1015.6 0.0
22/03:00am 17.9 15.4 6.7 48 5.6 ESE 9 9 5 5 1015.2 1014.8 0.0
22/02:30am 18.3 15.5 7.1 48 5.7 SSE 11 13 6 7 1015.0 1014.6 0.0
22/02:00am 18.7 16.1 7.8 49 5.6 E 11 13 6 7 1015.1 1014.7 0.0
22/01:30am 20.8 19.2 8.8 46 6.4 N 7 11 4 6 1015.4 1015.0 0.0
22/01:00am 20.8 17.9 8.1 44 6.7 N 13 17 7 9 1015.4 1015.0 0.0
22/12:30am 21.8 18.7 8.7 43 7.0 ENE 15 19 8 10 1015.2 1014.8 0.0
22/12:00am 22.5 19.0 8.6 41 7.4 N 17 19 9 10 1014.9 1014.5 0.0
 
Date/Time
WST
Temp
°C
App
Temp
°C
Dew
Point
°C
Rel
Hum
%
Delta-T
°C
Wind Press
QNH
hPa
Press
MSL
hPa
Rain since
9am
mm
Dir  Spd
km/h
Gust
km/h
Spd
kts
Gust
kts
21/11:30pm 23.6 21.2 8.5 38 8.1 N 11 13 6 7 1015.0 1014.6 0.0
21/11:00pm 25.2 20.6 9.5 37 8.6 N 24 32 13 17 1015.4 1015.0 0.0
21/10:30pm 25.7 23.5 9.5 36 9.0 NE 11 19 6 10 1015.2 1014.8 0.0
21/10:00pm 26.3 24.2 9.6 35 9.3 E 11 17 6 9 1015.1 1014.7 0.0
21/09:30pm 27.3 21.6 8.2 30 10.4 E 28 37 15 20 1015.1 1014.7 0.0
21/09:00pm 28.1 24.4 7.9 28 11.0 N 17 26 9 14 1016.2 1015.8 0.0
21/08:30pm 28.7 22.8 7.3 26 11.6 NNE 28 35 15 19 1015.8 1015.4 0.0
21/08:00pm 28.0 22.3 8.3 29 10.8 N 28 35 15 19 1015.9 1015.5 0.0
21/07:30pm 28.2 23.4 9.0 30 10.7 N 24 32 13 17 1016.0 1015.6 0.0
21/07:00pm 28.4 21.6 9.2 30 10.7 N 35 46 19 25 1015.6 1015.2 0.0
21/06:35pm 28.8 21.6 9.0 29 11.0 N 37 56 20 30 1014.9 1014.5 0.0
21/06:30pm 28.9 21.3 9.1 29 11.0 N 39 56 21 30 1014.8 1014.4 0.0
21/06:00pm 30.1 23.1 8.5 26 12.0 NNW 35 57 19 31 1014.0 1013.6 0.0
21/05:53pm 32.2 24.3 6.4 20 14.0 N 37 74 20 40 1013.8 1013.4 0.0
21/05:49pm 30.8 23.4 8.5 25 12.4 NNE 37 74 20 40 1014.0 1013.6 0.0
21/05:44pm 32.3 24.7 5.7 19 14.3 NE 35 74 19 40 1014.0 1013.6 0.0
21/05:30pm 34.1 27.5 1.8 13 16.4 ENE 26 37 14 20 1013.2 1012.8 0.0
21/05:00pm 35.6 30.9 3.0 13 17.1 ENE 17 24 9 13 1012.8 1012.4 0.0
21/04:30pm 35.4 31.8 2.8 13 17.0 E 11 17 6 9 1012.8 1012.4 0.0
21/04:00pm 36.6 33.9 3.7 13 17.5 NW 7 11 4 6 1012.6 1012.1 0.0
21/03:30pm 36.1 32.9 3.3 13 17.3 ENE 9 19 5 10 1013.0 1012.6 0.0
21/03:00pm 35.9 32.0 3.2 13 17.2 ESE 13 19 7 10 1013.5 1013.1 0.0
21/02:30pm 36.4 32.9 3.6 13 17.4 E 11 19 6 10 1013.8 1013.4 0.0
21/02:00pm 36.5 32.3 3.7 13 17.4 N 15 30 8 16 1014.0 1013.6 0.0
21/01:30pm 36.4 33.3 3.6 13 17.4 E 9 13 5 7 1014.4 1014.0 0.0
21/01:00pm 36.2 32.7 3.4 13 17.3 NNE 11 17 6 9 1015.0 1014.6 0.0
21/12:30pm 35.8 32.4 4.2 14 16.9 NE 11 22 6 12 1015.5 1015.1 0.0
21/12:00pm 35.4 30.8 3.9 14 16.7 NNW 17 30 9 16 1016.1 1015.7 0.0
21/11:30am 35.0 30.7 3.5 14 16.6 NNW 15 30 8 16 1016.3 1015.9 0.0
21/11:00am 35.5 31.7 3.9 14 16.8 NNE 13 24 7 13 1016.6 1016.2 0.0
21/10:30am 34.3 30.0 3.0 14 16.3 N 15 24 8 13 1017.3 1016.9 0.0
21/10:00am 33.6 28.4 2.4 14 16.0 NNW 19 32 10 17 1017.7 1017.3 0.0
21/09:30am 32.7 27.2 1.7 14 15.6 NNE 20 30 11 16 1018.1 1017.7 0.0
21/09:00am 32.5 26.8 0.6 13 15.7 NNE 20 32 11 17 1018.4 1018.0 0.0
21/08:30am 31.2 24.2 -0.5 13 15.2 NNE 26 33 14 18 1018.7 1018.3 0.0
21/08:00am 29.8 22.4 -0.5 14 14.4 NNE 28 33 15 18 1018.8 1018.4 0.0
21/07:30am 28.4 21.9 0.2 16 13.5 NNE 24 33 13 18 1018.9 1018.5 0.0
21/07:00am 25.8 20.3 0.5 19 11.9 NE 19 24 10 13 1019.0 1018.6 0.0
21/06:30am 21.9 17.1 0.4 24 9.8 ENE 15 17 8 9 1019.1 1018.7 0.0
21/06:00am 19.3 15.2 -0.1 27 8.5 ENE 11 15 6 8 1019.1 1018.7 0.0
21/05:30am 16.9 12.4 -0.3 31 7.4 E 13 15 7 8 1019.0 1018.6 0.0
21/05:00am 15.9 11.4 -0.3 33 6.9 E 13 15 7 8 1018.5 1018.1 0.0
21/04:30am 15.9 11.1 0.5 35 6.7 E 15 17 8 9 1018.2 1017.8 0.0
21/04:00am 15.7 11.2 -0.1 34 6.7 E 13 13 7 7 1018.2 1017.8 0.0
21/03:30am 16.6 13.0 0.3 33 7.1 ESE 9 13 5 7 1018.2 1017.8 0.0
21/03:00am 17.0 11.9 0.6 33 7.2 E 17 19 9 10 1017.8 1017.4 0.0
21/02:30am 16.7 11.5 0.4 33 7.1 E 17 17 9 9 1018.2 1017.8 0.0
21/02:00am 17.3 14.1 0.5 32 7.4 E 7 9 4 5 1018.8 1018.4 0.0
21/01:30am 18.1 13.8 1.2 32 7.6 E 13 17 7 9 1018.5 1018.1 0.0
21/01:00am 18.4 14.1 1.0 31 7.8 ENE 13 15 7 8 1018.8 1018.4 0.0
21/12:30am 20.2 17.2 2.1 30 8.4 NNW 7 9 4 5 1019.3 1018.9 0.0
21/12:00am 19.8 16.2 0.3 27 8.7 NW 9 15 5 8 1019.7 1019.3 0.0
 
Date/Time
WST
Temp
°C
App
Temp
°C
Dew
Point
°C
Rel
Hum
%
Delta-T
°C
Wind Press
QNH
hPa
Press
MSL
hPa
Rain since
9am
mm
Dir  Spd
km/h
Gust
km/h
Spd
kts
Gust
kts
20/11:30pm 19.7 15.4 1.2 29 8.4 N 13 28 7 15 1020.6 1020.2 0.0
20/11:00pm 19.2 14.6 -0.7 26 8.6 NNE 13 15 7 8 1020.4 1020.0 0.0
20/10:30pm 18.7 14.9 -0.7 27 8.4 ENE 9 9 5 5 1020.5 1020.1 0.0
20/10:00pm 18.9 15.1 -0.5 27 8.4 ENE 9 9 5 5 1020.7 1020.3 0.0
20/09:30pm 19.0 14.8 -0.9 26 8.6 ENE 11 11 6 6 1020.7 1020.3 0.0
20/09:00pm 19.3 15.5 -0.7 26 8.7 ENE 9 11 5 6 1020.6 1020.2 0.0
20/08:30pm 20.2 16.5 0.1 26 9.0 ENE 9 11 5 6 1020.5 1020.1 0.0
20/08:00pm 20.6 16.9 -0.1 25 9.2 ENE 9 11 5 6 1020.4 1020.0 0.0
20/07:30pm 20.7 15.8 -0.6 24 9.4 ENE 15 15 8 8 1020.2 1019.8 0.0
20/07:00pm 20.9 16.0 -0.4 24 9.5 ENE 15 19 8 10 1019.7 1019.3 0.0
20/06:30pm 22.3 17.1 0.2 23 10.1 ENE 17 17 9 9 1019.4 1019.0 0.0
20/06:00pm 24.4 19.6 0.0 20 11.2 ENE 15 15 8 8 1019.4 1019.0 0.0
20/05:30pm 26.7 21.9 0.4 18 12.4 NE 15 17 8 9 1019.3 1018.9 0.0
20/05:00pm 27.8 22.7 0.5 17 13.0 NNE 17 20 9 11 1019.5 1019.1 0.0
20/04:30pm 28.3 21.9 0.9 17 13.2 ENE 24 30 13 16 1019.3 1018.9 0.0
20/04:00pm 28.6 23.0 1.2 17 13.3 NE 20 28 11 15 1019.8 1019.4 0.0
20/03:30pm 28.8 22.8 1.3 17 13.4 NE 22 28 12 15 1020.0 1019.6 0.0
20/03:00pm 28.9 23.9 1.4 17 13.4 NNE 17 20 9 11 1020.3 1019.9 0.0
20/02:30pm 28.5 22.5 1.1 17 13.3 NE 22 30 12 16 1020.1 1019.7 0.0
20/02:00pm 28.2 22.3 1.7 18 12.9 NE 22 33 12 18 1020.3 1019.9 0.0
20/01:30pm 27.9 21.6 1.4 18 12.9 NNE 24 30 13 16 1020.5 1020.1 0.0
20/01:00pm 27.8 22.0 2.1 19 12.6 NNE 22 28 12 15 1021.1 1020.7 0.0
20/12:30pm 27.6 21.1 2.6 20 12.4 NNE 26 33 14 18 1021.7 1021.3 0.0
20/12:00pm 27.6 21.1 2.6 20 12.3 NE 26 37 14 20 1021.8 1021.4 0.0
20/11:30am 27.0 19.4 2.8 21 12.0 NE 32 39 17 21 1021.7 1021.3 0.0
20/11:00am 26.0 19.1 2.7 22 11.4 ENE 28 35 15 19 1022.0 1021.6 0.0
20/10:30am 25.0 18.6 3.0 24 10.8 ENE 26 33 14 18 1022.6 1022.2 0.0
20/10:00am 24.9 18.2 3.5 25 10.5 ENE 28 39 15 21 1022.9 1022.5 0.0
20/09:30am 24.0 17.0 3.9 27 9.9 ENE 30 35 16 19 1023.0 1022.6 0.0
20/09:00am 21.3 14.2 3.5 31 8.5 ENE 30 37 16 20 1023.5 1023.2 0.0
20/08:30am 19.9 12.9 4.0 35 7.7 ENE 30 37 16 20 1023.9 1023.6 0.0
20/08:00am 18.9 11.5 5.0 40 6.7 ENE 33 41 18 22 1024.2 1023.9 0.0
20/07:30am 17.4 10.7 5.7 46 5.7 ENE 30 37 16 20 1024.4 1024.1 0.0
20/07:00am 15.7 8.7 5.9 52 4.7 ENE 32 39 17 21 1024.0 1023.7 0.0
20/06:30am 14.2 7.0 5.8 57 4.0 ENE 33 41 18 22 1023.8 1023.5 0.0
20/06:00am 12.5 5.6 6.5 67 2.9 E 32 35 17 19 1023.6 1023.3 0.0
20/05:30am 10.9 4.7 6.1 72 2.3 E 28 35 15 19 1023.5 1023.2 0.0
20/05:00am 10.0 4.9 6.0 76 1.9 E 22 32 12 17 1023.6 1023.3 0.0
20/04:30am 9.9 5.2 5.9 76 1.9 E 20 28 11 15 1023.8 1023.5 0.0
20/04:00am 10.1 4.6 5.9 75 1.9 E 24 30 13 16 1023.4 1023.1 0.0
20/03:30am 10.3 4.5 6.3 76 1.9 E 26 32 14 17 1023.4 1023.1 0.0
20/03:00am 10.4 5.0 6.5 77 1.8 E 24 30 13 16 1023.5 1023.2 0.0
20/02:30am 10.6 4.6 6.9 78 1.8 E 28 35 15 19 1022.9 1022.5 0.0
20/02:00am 10.8 5.6 7.1 78 1.8 E 24 30 13 16 1023.8 1023.5 0.0
20/01:30am 11.0 5.5 7.5 79 1.7 E 26 33 14 18 1023.7 1023.4 0.0
20/01:00am 11.3 5.8 7.6 78 1.8 E 26 35 14 19 1023.8 1023.5 0.0
20/12:30am 11.5 5.2 7.6 77 1.9 E 30 37 16 20 1023.7 1023.4 0.0
20/12:00am 11.7 5.1 7.6 76 2.0 E 32 39 17 21 1024.1 1023.8 0.0
 
Date/Time
WST
Temp
°C
App
Temp
°C
Dew
Point
°C
Rel
Hum
%
Delta-T
°C
Wind Press
QNH
hPa
Press
MSL
hPa
Rain since
9am
mm
Dir  Spd
km/h
Gust
km/h
Spd
kts
Gust
kts
19/11:30pm 11.9 5.6 7.6 75 2.1 E 30 39 16 21 1024.6 1024.2 0.0
19/11:00pm 12.2 6.3 7.7 74 2.2 ESE 28 35 15 19 1024.7 1024.3 0.0
19/10:30pm 12.4 5.7 7.5 72 2.4 ESE 32 37 17 20 1024.8 1024.4 0.0
19/10:00pm 12.6 6.3 7.3 70 2.6 ESE 30 39 16 21 1025.4 1025.0 0.0
19/09:30pm 13.0 6.3 7.2 68 2.8 ESE 32 48 17 26 1025.0 1024.6 0.0
19/09:00pm 13.5 6.6 7.1 65 3.1 ESE 33 46 18 25 1025.0 1024.6 0.0
19/08:30pm 14.2 7.4 6.8 61 3.6 ESE 32 39 17 21 1025.0 1024.6 0.0
19/08:00pm 14.9 8.1 6.7 58 4.0 ESE 32 41 17 22 1025.0 1024.6 0.0
19/07:30pm 15.9 8.5 6.9 55 4.5 ESE 35 46 19 25 1024.4 1024.1 0.0
19/07:00pm 17.0 9.9 6.2 49 5.3 SE 33 43 18 23 1024.1 1023.8 0.0
19/06:30pm 18.4 10.7 5.3 42 6.4 SE 35 46 19 25 1023.6 1023.3 0.0
19/06:00pm 20.0 12.5 4.5 36 7.5 SE 33 43 18 23 1023.1 1022.7 0.0
19/05:30pm 21.7 13.7 3.9 31 8.7 ESE 35 46 19 25 1022.5 1022.1 0.0
19/05:00pm 23.3 15.8 3.3 27 9.7 ESE 32 41 17 22 1022.3 1021.9 0.0

Other formats

Comma delimited format used in spreadsheet applications
http://www.bom.gov.au/fwo/IDW60801/IDW60801.95646.axf

JavaScript Object Notation format (JSON) in row-major order
http://www.bom.gov.au/fwo/IDW60801/IDW60801.95646.json

Data quality

Most of these data are generated automatically and are frequently updated. Quality checks on data are not normally performed. It is possible for incorrect values to appear. Refer to information at About Latest Weather Observations and please check the disclaimer before using these data.